createdAt,value
2022-11-26T00:00:51.561Z,58.01
2022-11-26T00:03:29.598Z,58.08
2022-11-26T00:05:57.013Z,58.14
2022-11-26T00:08:30.233Z,57.98
2022-11-26T00:10:57.443Z,57.71
2022-11-26T00:13:26.349Z,58.06
2022-11-26T00:15:53.469Z,57.79
2022-11-26T00:18:20.295Z,57.79
2022-11-26T00:20:47.365Z,57.90
2022-11-26T00:23:21.761Z,57.83
2022-11-26T00:25:50.918Z,58.03
2022-11-26T00:28:34.826Z,58.00
2022-11-26T00:31:04.675Z,58.00
2022-11-26T00:33:31.800Z,57.69
2022-11-26T00:36:22.766Z,58.22
2022-11-26T00:38:53.652Z,57.79
2022-11-26T00:41:23.478Z,58.08
2022-11-26T00:43:50.250Z,57.74
2022-11-26T00:46:19.441Z,57.87
2022-11-26T00:48:46.343Z,57.78
2022-11-26T00:51:22.137Z,58.01
2022-11-26T00:53:48.942Z,57.96
2022-11-26T00:56:18.236Z,57.88
2022-11-26T00:58:45.379Z,58.03
2022-11-26T01:01:14.324Z,58.08
2022-11-26T01:03:43.018Z,57.78
2022-11-26T01:06:31.428Z,58.02
2022-11-26T01:08:58.250Z,58.11
2022-11-26T01:11:25.378Z,58.00
2022-11-26T01:13:53.329Z,58.04
2022-11-26T01:16:20.347Z,57.88
2022-11-26T01:18:47.990Z,58.11
2022-11-26T01:21:15.294Z,58.26
2022-11-26T01:23:42.094Z,58.00
2022-11-26T01:26:42.189Z,58.03
2022-11-26T01:29:18.886Z,57.86
2022-11-26T01:31:46.073Z,57.91
2022-11-26T01:34:12.996Z,58.13
2022-11-26T01:36:40.880Z,57.81
2022-11-26T01:39:13.275Z,58.43
2022-11-26T01:41:52.765Z,57.92
2022-11-26T01:44:24.845Z,57.87
2022-11-26T01:46:52.883Z,58.14
2022-11-26T01:49:26.900Z,58.01
2022-11-26T01:52:22.067Z,58.05
2022-11-26T01:54:48.792Z,58.06
2022-11-26T01:57:18.182Z,58.08
2022-11-26T01:59:46.959Z,58.08
2022-11-26T02:02:14.117Z,57.94
2022-11-26T02:04:45.820Z,57.75
2022-11-26T02:07:12.913Z,58.02
2022-11-26T02:09:39.709Z,58.21
2022-11-26T02:12:06.806Z,57.75
2022-11-26T02:14:38.687Z,58.12
2022-11-26T02:17:06.012Z,57.85
2022-11-26T02:20:10.374Z,58.13
2022-11-26T02:22:40.385Z,58.10
2022-11-26T02:25:35.332Z,58.00
2022-11-26T02:28:23.804Z,58.05
2022-11-26T02:31:05.759Z,58.14
2022-11-26T02:33:59.012Z,58.12
2022-11-26T02:36:33.809Z,58.27
2022-11-26T02:39:14.247Z,58.10
2022-11-26T02:41:45.608Z,58.37
2022-11-26T02:44:14.144Z,58.24
2022-11-26T02:46:40.848Z,58.44
2022-11-26T02:49:08.124Z,58.14
2022-11-26T02:51:35.124Z,58.29
2022-11-26T02:54:02.221Z,58.48
2022-11-26T02:56:28.991Z,58.31
2022-11-26T02:58:56.223Z,58.28
2022-11-26T03:01:35.511Z,58.42
2022-11-26T03:04:05.984Z,58.23
2022-11-26T03:06:33.065Z,58.43
2022-11-26T03:09:00.159Z,58.35
2022-11-26T03:11:27.496Z,58.59
2022-11-26T03:13:54.476Z,58.40
2022-11-26T03:16:21.315Z,58.17
2022-11-26T03:18:48.392Z,58.28
2022-11-26T03:21:15.099Z,58.07
2022-11-26T03:23:42.145Z,58.25
2022-11-26T03:26:08.836Z,58.26
2022-11-26T03:28:36.028Z,58.60
2022-11-26T03:31:02.739Z,58.58
2022-11-26T03:33:29.767Z,58.44
2022-11-26T03:35:56.483Z,58.46
2022-11-26T03:38:23.540Z,58.49
2022-11-26T03:40:57.592Z,58.70
2022-11-26T03:43:24.727Z,58.45
2022-11-26T03:45:51.515Z,58.60
2022-11-26T03:48:18.632Z,58.57
2022-11-26T03:50:45.364Z,58.60
2022-11-26T03:53:12.404Z,58.32
2022-11-26T03:55:39.152Z,58.54
2022-11-26T03:58:06.312Z,58.36
2022-11-26T04:00:33.072Z,58.48
2022-11-26T04:03:00.182Z,58.61
2022-11-26T04:05:26.985Z,58.71
2022-11-26T04:07:54.063Z,58.62
2022-11-26T04:10:20.859Z,58.65
2022-11-26T04:12:47.855Z,58.64
2022-11-26T04:15:14.539Z,58.88
2022-11-26T04:17:41.567Z,58.49
2022-11-26T04:20:09.031Z,58.57
2022-11-26T04:22:36.092Z,58.62
2022-11-26T04:25:02.911Z,58.46
2022-11-26T04:27:30.000Z,58.78
2022-11-26T04:29:56.724Z,58.50
2022-11-26T04:32:23.775Z,58.45
2022-11-26T04:34:50.472Z,58.50
2022-11-26T04:37:17.514Z,58.52
2022-11-26T04:39:44.242Z,58.49
2022-11-26T04:42:11.277Z,58.53
2022-11-26T04:44:38.361Z,58.55
2022-11-26T04:47:05.638Z,58.64
2022-11-26T04:49:32.380Z,58.59
2022-11-26T04:51:59.408Z,58.61
2022-11-26T04:54:26.124Z,58.58
2022-11-26T04:56:53.170Z,58.48
2022-11-26T04:59:19.884Z,58.63
2022-11-26T05:01:47.387Z,58.55
2022-11-26T05:04:14.143Z,58.83
2022-11-26T05:06:41.171Z,58.61
2022-11-26T05:09:07.918Z,58.74
2022-11-26T05:11:34.959Z,58.41
2022-11-26T05:14:01.719Z,58.75
2022-11-26T05:16:28.825Z,58.64
2022-11-26T05:18:55.631Z,58.55
2022-11-26T05:21:22.727Z,58.60
2022-11-26T05:23:49.404Z,58.69
2022-11-26T05:26:17.031Z,58.48
2022-11-26T05:28:43.767Z,58.69
2022-11-26T05:31:11.035Z,58.68
2022-11-26T05:33:37.908Z,58.66
2022-11-26T05:36:05.237Z,58.59
2022-11-26T05:38:31.979Z,58.56
2022-11-26T05:40:59.000Z,58.61
2022-11-26T05:43:25.779Z,58.65
2022-11-26T05:45:52.858Z,58.52
2022-11-26T05:48:19.567Z,58.34
2022-11-26T05:50:50.279Z,58.61
2022-11-26T05:53:21.051Z,58.62
2022-11-26T05:55:48.083Z,58.42
2022-11-26T05:58:14.812Z,58.81
2022-11-26T06:00:41.800Z,58.55
2022-11-26T06:03:08.687Z,58.42
2022-11-26T06:05:35.915Z,58.44
2022-11-26T06:08:02.728Z,58.50
2022-11-26T06:10:29.886Z,58.65
2022-11-26T06:12:56.759Z,58.39
2022-11-26T06:15:23.782Z,58.69
2022-11-26T06:17:50.474Z,58.57
2022-11-26T06:20:17.530Z,58.47
2022-11-26T06:22:44.463Z,58.66
2022-11-26T06:25:13.451Z,58.64
2022-11-26T06:27:40.531Z,58.85
2022-11-26T06:30:08.669Z,58.58
2022-11-26T06:32:35.426Z,58.70
2022-11-26T06:35:02.526Z,58.70
2022-11-26T06:37:29.237Z,58.99
2022-11-26T06:39:56.243Z,58.60
2022-11-26T06:42:22.936Z,58.54
2022-11-26T06:44:57.017Z,58.79
2022-11-26T06:47:26.491Z,58.69
2022-11-26T06:49:53.721Z,58.65
2022-11-26T06:52:20.455Z,58.41
2022-11-26T06:54:47.530Z,58.41
2022-11-26T06:57:14.298Z,58.74
2022-11-26T06:59:41.350Z,58.86
2022-11-26T07:02:09.641Z,58.80
2022-11-26T07:04:36.925Z,58.79
2022-11-26T07:07:03.904Z,58.59
2022-11-26T07:09:30.865Z,58.74
2022-11-26T07:11:57.573Z,58.74
2022-11-26T07:14:24.583Z,58.63
2022-11-26T07:16:51.308Z,58.87
2022-11-26T07:19:18.381Z,58.66
2022-11-26T07:21:45.165Z,58.54
2022-11-26T07:24:12.191Z,58.76
2022-11-26T07:26:38.932Z,58.90
2022-11-26T07:29:06.111Z,58.82
2022-11-26T07:31:32.949Z,58.73
2022-11-26T07:33:59.985Z,58.82
2022-11-26T07:36:27.529Z,58.80
2022-11-26T07:38:58.453Z,58.83
2022-11-26T07:41:25.466Z,58.62
2022-11-26T07:43:52.488Z,58.77
2022-11-26T07:46:21.653Z,58.82
2022-11-26T07:48:48.890Z,58.81
2022-11-26T07:51:20.527Z,58.83
2022-11-26T07:53:47.730Z,58.64
2022-11-26T07:56:14.914Z,58.95
2022-11-26T07:58:41.974Z,58.87
2022-11-26T08:01:10.113Z,58.87
2022-11-26T08:03:39.128Z,58.58
2022-11-26T08:06:07.723Z,58.62
2022-11-26T08:08:35.368Z,58.98
2022-11-26T08:11:03.176Z,58.58
2022-11-26T08:13:30.304Z,58.76
2022-11-26T08:15:57.090Z,58.85
2022-11-26T08:18:24.180Z,58.78
2022-11-26T08:20:57.416Z,58.76
2022-11-26T08:23:24.823Z,58.63
2022-11-26T08:26:22.736Z,58.75
2022-11-26T08:28:39.016Z,58.59
2022-11-26T08:31:07.250Z,58.79
2022-11-26T08:33:34.360Z,58.78
2022-11-26T08:36:08.876Z,58.81
2022-11-26T08:38:36.144Z,58.85
2022-11-26T08:41:04.268Z,58.85
2022-11-26T08:44:04.046Z,58.75
2022-11-26T08:46:18.248Z,58.66
2022-11-26T08:48:45.423Z,58.72
2022-11-26T08:51:12.431Z,58.65
2022-11-26T08:53:39.643Z,58.53
2022-11-26T08:56:10.971Z,58.85
2022-11-26T08:58:39.538Z,58.69
2022-11-26T09:01:14.838Z,58.60
2022-11-26T09:03:42.007Z,58.42
2022-11-26T09:06:08.921Z,58.45
2022-11-26T09:08:56.145Z,58.27
2022-11-26T09:11:23.636Z,58.08
2022-11-26T09:13:50.669Z,58.31
2022-11-26T09:16:17.604Z,58.79
2022-11-26T09:18:44.723Z,58.82
2022-11-26T09:21:11.487Z,59.31
2022-11-26T09:23:38.512Z,59.52
2022-11-26T09:26:05.399Z,59.32
2022-11-26T09:28:32.379Z,59.38
2022-11-26T09:30:59.728Z,59.15
2022-11-26T09:33:26.906Z,59.20
2022-11-26T09:35:53.626Z,59.37
2022-11-26T09:38:20.899Z,59.06
2022-11-26T09:40:49.733Z,58.98
2022-11-26T09:43:29.632Z,59.36
2022-11-26T09:45:58.722Z,59.21
2022-11-26T09:48:25.935Z,59.03
2022-11-26T09:50:56.190Z,58.88
2022-11-26T09:53:28.113Z,58.63
2022-11-26T09:55:55.542Z,58.75
2022-11-26T09:58:31.757Z,58.88
2022-11-26T10:00:59.752Z,58.90
2022-11-26T10:03:29.935Z,59.19
2022-11-26T10:06:06.618Z,59.00
2022-11-26T10:08:58.566Z,59.24
2022-11-26T10:11:59.018Z,58.75
2022-11-26T10:14:30.758Z,58.33
2022-11-26T10:17:09.593Z,58.87
2022-11-26T10:19:58.994Z,59.14
2022-11-26T10:22:28.702Z,58.38
2022-11-26T10:24:56.818Z,58.96
2022-11-26T10:27:24.725Z,59.15
2022-11-26T10:29:54.643Z,59.17
2022-11-26T10:32:26.119Z,59.29
2022-11-26T10:34:57.585Z,59.17
2022-11-26T10:37:28.437Z,59.17
2022-11-26T10:40:20.930Z,59.35
2022-11-26T10:43:05.904Z,59.28
2022-11-26T10:45:37.316Z,59.11
2022-11-26T10:48:29.885Z,59.23
2022-11-26T10:51:01.357Z,59.04
2022-11-26T10:53:29.832Z,59.23
2022-11-26T10:56:01.269Z,59.11
2022-11-26T10:58:33.273Z,59.17
2022-11-26T11:01:04.966Z,59.41
2022-11-26T11:06:28.106Z,59.20
2022-11-26T11:08:55.148Z,58.99
2022-11-26T11:11:22.277Z,59.27
2022-11-26T11:13:49.241Z,59.25
2022-11-26T11:16:22.837Z,59.25
2022-11-26T11:18:51.642Z,59.15
2022-11-26T11:21:19.134Z,59.03
2022-11-26T11:24:07.567Z,59.16
2022-11-26T11:26:40.568Z,59.17
2022-11-26T11:29:32.606Z,59.10
2022-11-26T11:32:02.142Z,59.10
2022-11-26T11:34:33.927Z,59.17
2022-11-26T11:37:05.633Z,59.19
2022-11-26T11:39:34.087Z,59.00
2022-11-26T11:42:02.559Z,59.36
2022-11-26T11:44:38.686Z,59.02
2022-11-26T11:47:21.332Z,58.82
2022-11-26T11:50:02.257Z,59.22
2022-11-26T11:52:32.206Z,59.29
2022-11-26T11:55:08.228Z,59.22
2022-11-26T11:57:56.695Z,59.15
2022-11-26T12:00:26.285Z,59.15
2022-11-26T12:03:25.508Z,58.91
2022-11-26T12:06:07.651Z,58.97
2022-11-26T12:08:58.888Z,59.10
2022-11-26T12:11:57.762Z,58.65
2022-11-26T12:14:30.885Z,58.72
2022-11-26T12:17:02.873Z,58.84
2022-11-26T12:19:43.770Z,58.77
2022-11-26T12:22:17.576Z,59.14
2022-11-26T12:24:48.481Z,58.71
2022-11-26T12:27:21.109Z,58.83
2022-11-26T12:29:52.501Z,59.14
2022-11-26T12:32:51.071Z,58.56
2022-11-26T12:35:41.193Z,58.91
2022-11-26T12:38:25.698Z,58.83
2022-11-26T12:40:58.638Z,58.75
2022-11-26T12:43:40.210Z,58.69
2022-11-26T12:46:18.636Z,58.89
2022-11-26T12:49:13.791Z,58.90
2022-11-26T12:51:58.521Z,58.96
2022-11-26T12:54:28.974Z,58.83
2022-11-26T12:56:57.401Z,58.74
2022-11-26T12:59:35.126Z,58.69
2022-11-26T13:02:14.593Z,58.73
2022-11-26T13:04:41.365Z,58.75
2022-11-26T13:07:57.917Z,58.76
2022-11-26T13:10:57.437Z,58.56
2022-11-26T13:13:39.181Z,58.82
2022-11-26T13:16:07.940Z,58.62
2022-11-26T13:18:41.589Z,58.76
2022-11-26T13:21:36.431Z,58.72
2022-11-26T13:24:40.994Z,58.60
2022-11-26T13:27:39.081Z,58.92
2022-11-26T13:30:17.804Z,58.88
2022-11-26T13:33:07.316Z,58.67
2022-11-26T13:35:47.254Z,58.72
2022-11-26T13:38:24.177Z,58.46
2022-11-26T13:41:00.268Z,58.57
2022-11-26T13:44:07.921Z,58.66
2022-11-26T13:46:38.136Z,58.49
2022-11-26T13:49:15.582Z,58.85
2022-11-26T13:51:47.756Z,58.75
2022-11-26T13:54:24.400Z,58.96
2022-11-26T13:57:01.038Z,58.78
2022-11-26T13:59:28.883Z,58.97
2022-11-26T14:01:56.235Z,58.93
2022-11-26T14:04:23.107Z,58.84
2022-11-26T14:07:05.339Z,58.90
2022-11-26T14:09:44.516Z,58.79
2022-11-26T14:12:17.690Z,58.69
2022-11-26T14:14:46.208Z,58.72
2022-11-26T14:17:20.254Z,58.75
2022-11-26T14:19:52.039Z,58.92
2022-11-26T14:22:22.221Z,58.87
2022-11-26T14:24:52.016Z,58.75
2022-11-26T14:27:32.948Z,58.64
2022-11-26T14:30:07.666Z,58.84
2022-11-26T14:32:39.231Z,58.82
2022-11-26T14:35:21.328Z,58.91
2022-11-26T14:37:55.858Z,58.83
2022-11-26T14:40:28.105Z,58.82
2022-11-26T14:43:19.409Z,58.76
2022-11-26T14:45:47.675Z,58.73
2022-11-26T14:48:28.283Z,58.85
2022-11-26T14:50:56.532Z,58.76
2022-11-26T14:53:25.166Z,58.91
2022-11-26T14:55:52.168Z,58.61
2022-11-26T14:58:21.025Z,58.67
2022-11-26T15:01:15.221Z,58.77
2022-11-26T15:03:42.417Z,59.01
2022-11-26T15:06:26.557Z,58.97
2022-11-26T15:09:15.053Z,58.79
2022-11-26T15:12:09.555Z,58.44
2022-11-26T15:14:49.920Z,58.66
2022-11-26T15:17:17.875Z,58.61
2022-11-26T15:19:44.975Z,58.88
2022-11-26T15:22:34.375Z,59.36
2022-11-26T15:25:01.439Z,59.40
2022-11-26T15:27:41.251Z,59.64
2022-11-26T15:30:22.919Z,59.64
2022-11-26T15:32:58.893Z,59.73
2022-11-26T15:35:25.968Z,59.53
2022-11-26T15:37:52.783Z,59.57
2022-11-26T15:40:25.131Z,59.47
2022-11-26T15:42:55.076Z,59.46
2022-11-26T15:45:22.850Z,59.46
2022-11-26T15:47:54.235Z,59.32
2022-11-26T15:50:30.597Z,59.31
2022-11-26T15:53:22.198Z,59.29
2022-11-26T15:55:49.356Z,59.33
2022-11-26T15:58:19.830Z,59.08
2022-11-26T16:00:53.499Z,59.31
2022-11-26T16:03:35.766Z,59.28
2022-11-26T16:06:05.086Z,59.25
2022-11-26T16:08:32.027Z,59.58
2022-11-26T16:11:05.729Z,59.51
2022-11-26T16:13:33.086Z,59.51
2022-11-26T16:16:19.546Z,59.22
2022-11-26T16:18:46.341Z,59.47
2022-11-26T16:21:18.846Z,59.32
2022-11-26T16:23:52.314Z,59.37
2022-11-26T16:26:19.505Z,59.52
2022-11-26T16:28:46.972Z,59.22
2022-11-26T16:31:14.842Z,59.41
2022-11-26T16:33:41.818Z,59.32
2022-11-26T16:36:25.454Z,59.59
2022-11-26T16:38:52.558Z,59.45
2022-11-26T16:41:20.717Z,59.29
2022-11-26T16:43:48.138Z,59.45
2022-11-26T16:46:20.987Z,59.29
2022-11-26T16:48:48.005Z,59.62
2022-11-26T16:51:15.128Z,59.55
2022-11-26T16:53:41.863Z,59.64
2022-11-26T16:56:38.415Z,59.56
2022-11-26T16:59:05.348Z,59.65
2022-11-26T17:01:33.215Z,59.69
2022-11-26T17:04:00.013Z,59.68
2022-11-26T17:06:31.324Z,59.51
2022-11-26T17:08:58.164Z,59.62
2022-11-26T17:11:25.368Z,59.66
2022-11-26T17:13:52.245Z,59.97
2022-11-26T17:16:21.032Z,59.66
2022-11-26T17:18:48.061Z,60.03
2022-11-26T17:21:15.205Z,59.83
2022-11-26T17:23:42.013Z,59.81
2022-11-26T17:26:27.291Z,59.51
2022-11-26T17:28:54.107Z,59.52
2022-11-26T17:31:21.290Z,59.30
2022-11-26T17:33:48.176Z,59.48
2022-11-26T17:36:15.255Z,59.45
2022-11-26T17:38:42.175Z,59.43
2022-11-26T17:41:11.165Z,59.41
2022-11-26T17:43:38.411Z,59.38
2022-11-26T17:46:05.834Z,59.63
2022-11-26T17:48:32.642Z,59.33
2022-11-26T17:50:59.668Z,59.47
2022-11-26T17:53:26.471Z,59.15
2022-11-26T17:55:53.551Z,59.49
2022-11-26T17:58:20.386Z,59.56
2022-11-26T18:00:47.404Z,59.28
2022-11-26T18:03:14.159Z,59.50
2022-11-26T18:05:42.436Z,59.54
2022-11-26T18:08:09.336Z,59.26
2022-11-26T18:10:39.325Z,59.67
2022-11-26T18:13:06.126Z,59.52
2022-11-26T18:15:33.209Z,59.64
2022-11-26T18:18:00.701Z,59.81
2022-11-26T18:20:28.150Z,59.65
2022-11-26T18:22:57.112Z,59.46
2022-11-26T18:25:24.401Z,59.76
2022-11-26T18:27:51.705Z,59.77
2022-11-26T18:30:19.167Z,59.63
2022-11-26T18:32:46.218Z,59.83
2022-11-26T18:35:13.439Z,59.87
2022-11-26T18:37:40.333Z,59.90
2022-11-26T18:40:08.704Z,59.83
2022-11-26T18:42:37.766Z,59.75
2022-11-26T18:45:10.140Z,60.15
2022-11-26T18:47:37.597Z,59.73
2022-11-26T18:50:05.528Z,59.93
2022-11-26T18:52:32.294Z,59.85
2022-11-26T18:55:00.094Z,60.08
2022-11-26T18:57:27.457Z,59.84
2022-11-26T18:59:54.469Z,59.98
2022-11-26T19:02:21.245Z,59.93
2022-11-26T19:04:48.393Z,60.04
2022-11-26T19:07:15.641Z,59.94
2022-11-26T19:09:43.263Z,59.99
2022-11-26T19:12:12.373Z,59.86
2022-11-26T19:14:39.468Z,60.04
2022-11-26T19:17:06.299Z,59.94
2022-11-26T19:19:33.468Z,60.04
2022-11-26T19:22:01.596Z,60.08
2022-11-26T19:24:29.913Z,60.19
2022-11-26T19:26:57.134Z,60.15
2022-11-26T19:29:24.209Z,60.06
2022-11-26T19:31:51.000Z,60.05
2022-11-26T19:34:18.312Z,59.89
2022-11-26T19:36:48.543Z,60.08
2022-11-26T19:39:16.129Z,60.28
2022-11-26T19:41:42.923Z,60.05
2022-11-26T19:44:09.995Z,60.14
2022-11-26T19:46:39.376Z,60.13
2022-11-26T19:49:07.307Z,60.18
2022-11-26T19:51:34.139Z,60.06
2022-11-26T19:54:01.183Z,59.98
2022-11-26T19:56:29.444Z,60.15
2022-11-26T19:59:00.609Z,60.31
2022-11-26T20:01:30.573Z,60.18
2022-11-26T20:04:02.911Z,60.30
2022-11-26T20:06:30.558Z,60.17
2022-11-26T20:09:00.542Z,60.12
2022-11-26T20:11:28.037Z,60.20
2022-11-26T20:13:55.417Z,60.37
2022-11-26T20:16:24.384Z,60.37
2022-11-26T20:18:51.568Z,60.34
2022-11-26T20:21:20.354Z,60.44
2022-11-26T20:23:48.470Z,60.49
2022-11-26T20:26:17.482Z,60.36
2022-11-26T20:28:44.810Z,60.36
2022-11-26T20:31:12.068Z,60.55
2022-11-26T20:33:39.170Z,60.60
2022-11-26T20:36:07.847Z,60.39
2022-11-26T20:38:35.114Z,60.24
2022-11-26T20:41:06.710Z,60.49
2022-11-26T20:43:33.834Z,60.47
2022-11-26T20:46:04.808Z,60.43
2022-11-26T20:48:32.660Z,60.48
2022-11-26T20:51:03.604Z,60.31
2022-11-26T20:53:30.986Z,60.40
2022-11-26T20:55:57.823Z,60.53
2022-11-26T20:58:25.608Z,60.45
2022-11-26T21:00:54.163Z,60.61
2022-11-26T21:03:22.173Z,60.66
2022-11-26T21:05:49.059Z,60.18
2022-11-26T21:08:16.777Z,60.49
2022-11-26T21:10:43.614Z,60.59
2022-11-26T21:13:12.378Z,60.44
2022-11-26T21:15:40.250Z,60.46
2022-11-26T21:18:07.383Z,60.51
2022-11-26T21:20:36.295Z,60.70
2022-11-26T21:23:03.459Z,60.53
2022-11-26T21:25:30.221Z,60.64
2022-11-26T21:27:57.331Z,60.46
2022-11-26T21:30:24.273Z,60.73
2022-11-26T21:32:51.493Z,60.47
2022-11-26T21:35:18.285Z,60.65
2022-11-26T21:37:45.581Z,60.69
2022-11-26T21:40:12.697Z,60.73
2022-11-26T21:42:39.817Z,60.68
2022-11-26T21:45:07.970Z,60.82
2022-11-26T21:47:35.102Z,60.65
2022-11-26T21:50:02.516Z,60.63
2022-11-26T21:52:29.573Z,60.83
2022-11-26T21:55:00.798Z,60.64
2022-11-26T21:57:31.818Z,60.71
2022-11-26T21:59:58.617Z,60.67
2022-11-26T22:02:25.737Z,60.66
2022-11-26T22:04:52.769Z,60.72
2022-11-26T22:07:21.490Z,60.51
2022-11-26T22:09:48.302Z,60.49
2022-11-26T22:12:15.330Z,60.75
2022-11-26T22:14:42.327Z,61.01
2022-11-26T22:17:09.340Z,60.73
2022-11-26T22:19:36.175Z,60.77
2022-11-26T22:22:03.263Z,60.57
2022-11-26T22:24:29.959Z,60.61
2022-11-26T22:26:57.002Z,60.70
2022-11-26T22:29:23.965Z,60.79
2022-11-26T22:31:51.121Z,60.75
2022-11-26T22:34:18.809Z,60.58
2022-11-26T22:36:45.988Z,60.80
2022-11-26T22:39:14.377Z,60.62
2022-11-26T22:41:41.945Z,60.64
2022-11-26T22:44:08.941Z,60.72
2022-11-26T22:46:38.152Z,60.72
2022-11-26T22:49:05.342Z,60.68
2022-11-26T22:51:33.301Z,60.59
2022-11-26T22:54:02.822Z,60.67
2022-11-26T22:56:30.073Z,60.81
2022-11-26T22:58:56.946Z,60.89
2022-11-26T23:01:29.620Z,60.85
2022-11-26T23:03:58.362Z,60.67
2022-11-26T23:06:26.721Z,60.72
2022-11-26T23:08:54.551Z,60.80
2022-11-26T23:11:25.409Z,60.82
2022-11-26T23:13:52.401Z,60.87
2022-11-26T23:16:20.815Z,60.74
2022-11-26T23:18:48.034Z,60.75
2022-11-26T23:21:17.269Z,60.99
2022-11-26T23:23:44.360Z,60.84
2022-11-26T23:26:13.535Z,61.23
2022-11-26T23:28:40.412Z,60.85
2022-11-26T23:31:13.205Z,60.85
2022-11-26T23:33:39.954Z,61.02
2022-11-26T23:36:07.364Z,60.76
2022-11-26T23:38:34.564Z,61.03
2022-11-26T23:41:02.604Z,61.02
2022-11-26T23:43:30.062Z,60.79
2022-11-26T23:46:07.981Z,60.88
2022-11-26T23:48:34.738Z,60.81
2022-11-26T23:51:06.117Z,60.72
2022-11-26T23:53:35.271Z,60.82
2022-11-26T23:56:06.386Z,60.84
2022-11-26T23:58:33.210Z,61.01
